createdAt,value
2023-01-22T00:00:26.588Z,9.745346
2023-01-22T00:01:28.576Z,9.745842
2023-01-22T00:02:26.609Z,9.745724
2023-01-22T00:03:26.603Z,9.745489
2023-01-22T00:04:26.562Z,9.745687
2023-01-22T00:05:26.610Z,9.745625
2023-01-22T00:06:26.554Z,9.745599
2023-01-22T00:07:26.580Z,9.745533
2023-01-22T00:08:26.762Z,9.745757
2023-01-22T00:09:26.536Z,9.745833
2023-01-22T00:10:26.521Z,9.745805
2023-01-22T00:11:26.509Z,9.745375
2023-01-22T00:12:26.571Z,9.745687
2023-01-22T00:13:26.513Z,9.745323
2023-01-22T00:14:26.561Z,9.745549
2023-01-22T00:15:26.483Z,9.745327
2023-01-22T00:16:26.474Z,9.745119
2023-01-22T00:17:26.605Z,9.745545
2023-01-22T00:18:26.455Z,9.745545
2023-01-22T00:19:26.465Z,9.745362
2023-01-22T00:20:26.441Z,9.745488
2023-01-22T00:21:26.435Z,9.745173
2023-01-22T00:22:26.475Z,9.745173
2023-01-22T00:23:26.420Z,9.745693
2023-01-22T00:24:26.409Z,9.745009
2023-01-22T00:25:26.415Z,9.745307
2023-01-22T00:26:26.400Z,9.745688
2023-01-22T00:27:26.457Z,9.745589
2023-01-22T00:28:26.371Z,9.745354
2023-01-22T00:29:27.369Z,9.745503
2023-01-22T00:30:26.364Z,9.745516
2023-01-22T00:31:26.449Z,9.745070
2023-01-22T00:32:26.371Z,9.745010
2023-01-22T00:33:26.344Z,9.744733
2023-01-22T00:34:26.333Z,9.745377
2023-01-22T00:35:26.353Z,9.745357
2023-01-22T00:36:26.319Z,9.745479
2023-01-22T00:37:26.343Z,9.745546
2023-01-22T00:38:26.304Z,9.745490
2023-01-22T00:39:26.298Z,9.745467
2023-01-22T00:40:26.287Z,9.745602
2023-01-22T00:41:26.305Z,9.745525
2023-01-22T00:42:26.301Z,9.745781
2023-01-22T00:43:26.407Z,9.745480
2023-01-22T00:44:26.282Z,9.745241
2023-01-22T00:45:26.256Z,9.745353
2023-01-22T00:46:26.259Z,9.745193
2023-01-22T00:47:26.233Z,9.745390
2023-01-22T00:48:26.259Z,9.745465
2023-01-22T00:49:26.234Z,9.745392
2023-01-22T00:50:26.252Z,9.745406
2023-01-22T00:51:26.321Z,9.745486
2023-01-22T00:52:26.202Z,9.745525
2023-01-22T00:53:26.217Z,9.745575
2023-01-22T00:54:26.178Z,9.745630
2023-01-22T00:55:26.180Z,9.745389
2023-01-22T00:56:26.165Z,9.745475
2023-01-22T00:57:26.255Z,9.745224
2023-01-22T00:58:26.285Z,9.745093
2023-01-22T00:59:26.157Z,9.744882
2023-01-22T01:00:26.254Z,9.745046
2023-01-22T01:01:26.141Z,9.745278
2023-01-22T01:02:26.135Z,9.745490
2023-01-22T01:03:26.262Z,9.745386
2023-01-22T01:04:26.111Z,9.745503
2023-01-22T01:05:26.109Z,9.745665
2023-01-22T01:06:26.168Z,9.745493
2023-01-22T01:07:26.121Z,9.745403
2023-01-22T01:08:26.111Z,9.745131
2023-01-22T01:09:26.199Z,9.745326
2023-01-22T01:10:26.108Z,9.745397
2023-01-22T01:11:26.065Z,9.745381
2023-01-22T01:12:26.059Z,9.745329
2023-01-22T01:13:26.148Z,9.745414
2023-01-22T01:14:26.043Z,9.745754
2023-01-22T01:15:26.033Z,9.745438
2023-01-22T01:16:26.091Z,9.745485
2023-01-22T01:17:26.020Z,9.745479
2023-01-22T01:18:26.035Z,9.745367
2023-01-22T01:19:26.016Z,9.745431
2023-01-22T01:20:26.015Z,9.745263
2023-01-22T01:21:25.997Z,9.745461
2023-01-22T01:22:25.979Z,9.745346
2023-01-22T01:23:25.995Z,9.745337
2023-01-22T01:24:25.996Z,9.745225
2023-01-22T01:25:25.959Z,9.744967
2023-01-22T01:26:25.951Z,9.745312
2023-01-22T01:27:25.963Z,9.745364
2023-01-22T01:28:25.955Z,9.745435
2023-01-22T01:29:25.998Z,9.745544
2023-01-22T01:30:25.921Z,9.745522
2023-01-22T01:31:26.002Z,9.745403
2023-01-22T01:32:26.915Z,9.745297
2023-01-22T01:33:25.902Z,9.745376
2023-01-22T01:34:26.026Z,9.745523
2023-01-22T01:35:25.890Z,9.745498
2023-01-22T01:36:48.836Z,9.745405
2023-01-22T01:37:28.527Z,9.745258
2023-01-22T01:38:25.867Z,9.745361
2023-01-22T01:39:26.023Z,9.745304
2023-01-22T01:40:25.908Z,9.745338
2023-01-22T01:41:25.840Z,9.745354
2023-01-22T01:42:25.833Z,9.745351
2023-01-22T01:43:25.833Z,9.745325
2023-01-22T01:44:26.052Z,9.745230
2023-01-22T01:45:25.887Z,9.745270
2023-01-22T01:46:25.841Z,9.745338
2023-01-22T01:47:25.800Z,9.745385
2023-01-22T01:48:25.787Z,9.745192
2023-01-22T01:49:26.073Z,9.745264
2023-01-22T01:50:25.780Z,9.745296
2023-01-22T01:51:25.864Z,9.745276
2023-01-22T01:52:25.770Z,9.745279
2023-01-22T01:53:25.765Z,9.745252
2023-01-22T01:54:26.091Z,9.745112
2023-01-22T01:55:25.745Z,9.745251
2023-01-22T01:56:25.735Z,9.745285
2023-01-22T01:57:25.724Z,9.745244
2023-01-22T01:58:25.721Z,9.745280
2023-01-22T01:59:26.107Z,9.745230
2023-01-22T02:00:25.755Z,9.745101
2023-01-22T02:01:25.855Z,9.745181
2023-01-22T02:02:25.691Z,9.745302
2023-01-22T02:03:25.683Z,9.745098
2023-01-22T02:04:26.129Z,9.745131
2023-01-22T02:05:25.666Z,9.745222
2023-01-22T02:06:25.665Z,9.745203
2023-01-22T02:07:25.653Z,9.745011
2023-01-22T02:08:25.650Z,9.745086
2023-01-22T02:09:25.666Z,9.745042
2023-01-22T02:10:25.647Z,9.745128
2023-01-22T02:11:25.622Z,9.745366
2023-01-22T02:12:25.615Z,9.745432
2023-01-22T02:13:25.615Z,9.746014
2023-01-22T02:14:25.626Z,9.745792
2023-01-22T02:15:25.607Z,9.745575
2023-01-22T02:16:25.634Z,9.745443
2023-01-22T02:17:25.659Z,9.745514
2023-01-22T02:18:25.584Z,9.745418
2023-01-22T02:19:25.593Z,9.745375
2023-01-22T02:20:25.568Z,9.745358
2023-01-22T02:21:25.557Z,9.745234
2023-01-22T02:22:25.579Z,9.745319
2023-01-22T02:23:25.557Z,9.745305
2023-01-22T02:24:25.534Z,9.745268
2023-01-22T02:25:25.550Z,9.745358
2023-01-22T02:26:25.524Z,9.745195
2023-01-22T02:27:25.515Z,9.745189
2023-01-22T02:28:25.548Z,9.744994
2023-01-22T02:29:25.493Z,9.745172
2023-01-22T02:30:25.511Z,9.745711
2023-01-22T02:31:25.514Z,9.745577
2023-01-22T02:32:25.473Z,9.745583
2023-01-22T02:33:31.243Z,9.745725
2023-01-22T02:34:26.534Z,9.746254
2023-01-22T02:35:25.470Z,9.745804
2023-01-22T02:36:25.438Z,9.745520
2023-01-22T02:37:25.430Z,9.745512
2023-01-22T02:38:25.424Z,9.745317
2023-01-22T02:39:25.414Z,9.744875
2023-01-22T02:40:25.433Z,9.745543
2023-01-22T02:41:25.399Z,9.745433
2023-01-22T02:42:25.391Z,9.745487
2023-01-22T02:43:25.387Z,9.745450
2023-01-22T02:44:25.412Z,9.745516
2023-01-22T02:45:25.408Z,9.745470
2023-01-22T02:46:25.370Z,9.745503
2023-01-22T02:47:25.352Z,9.745345
2023-01-22T02:48:26.367Z,9.745348
2023-01-22T02:49:25.347Z,9.745406
2023-01-22T02:50:25.438Z,9.745511
2023-01-22T02:51:25.360Z,9.745452
2023-01-22T02:52:25.325Z,9.745348
2023-01-22T02:53:25.318Z,9.745213
2023-01-22T02:54:25.310Z,9.745121
2023-01-22T02:55:25.327Z,9.745338
2023-01-22T02:56:25.295Z,9.745495
2023-01-22T02:57:25.285Z,9.745466
2023-01-22T02:58:25.279Z,9.745460
2023-01-22T02:59:25.276Z,9.745292
2023-01-22T03:00:25.301Z,9.745271
2023-01-22T03:01:25.268Z,9.745436
2023-01-22T03:02:25.278Z,9.745434
2023-01-22T03:03:25.244Z,9.745409
2023-01-22T03:04:25.235Z,9.745421
2023-01-22T03:05:25.261Z,9.745264
2023-01-22T03:06:25.296Z,9.745560
2023-01-22T03:07:25.216Z,9.745506
2023-01-22T03:08:25.203Z,9.745587
2023-01-22T03:09:25.196Z,9.745720
2023-01-22T03:10:25.185Z,9.745836
2023-01-22T03:11:25.221Z,9.745257
2023-01-22T03:12:25.170Z,9.745393
2023-01-22T03:13:25.161Z,9.745476
2023-01-22T03:14:25.160Z,9.745491
2023-01-22T03:15:25.154Z,9.745481
2023-01-22T03:16:25.207Z,9.745490
2023-01-22T03:17:25.151Z,9.745410
2023-01-22T03:18:25.934Z,9.745348
2023-01-22T03:19:25.120Z,9.745476
2023-01-22T03:20:25.128Z,9.745609
2023-01-22T03:21:25.132Z,9.745590
2023-01-22T03:22:25.190Z,9.745588
2023-01-22T03:23:25.085Z,9.745432
2023-01-22T03:24:25.079Z,9.745440
2023-01-22T03:25:25.071Z,9.745621
2023-01-22T03:26:25.086Z,9.745786
2023-01-22T03:27:25.055Z,9.745660
2023-01-22T03:28:25.056Z,9.745678
2023-01-22T03:29:25.041Z,9.745491
2023-01-22T03:30:25.032Z,9.745475
2023-01-22T03:31:25.120Z,9.745534
2023-01-22T03:32:25.020Z,9.745142
2023-01-22T03:33:25.005Z,9.745565
2023-01-22T03:34:25.002Z,9.745623
2023-01-22T03:35:24.995Z,9.745437
2023-01-22T03:36:25.016Z,9.745935
2023-01-22T03:37:24.983Z,9.745802
2023-01-22T03:38:25.049Z,9.745453
2023-01-22T03:39:24.967Z,9.745481
2023-01-22T03:40:24.956Z,9.745593
2023-01-22T03:41:24.974Z,9.745254
2023-01-22T03:42:24.947Z,9.744450
2023-01-22T03:43:24.936Z,9.745148
2023-01-22T03:44:24.929Z,9.745366
2023-01-22T03:45:24.936Z,9.745234
2023-01-22T03:46:25.008Z,9.744656
2023-01-22T03:47:24.921Z,9.745031
2023-01-22T03:48:24.924Z,9.745525
2023-01-22T03:49:24.896Z,9.745722
2023-01-22T03:50:24.886Z,9.745619
2023-01-22T03:51:24.970Z,9.745444
2023-01-22T03:52:24.866Z,9.745064
2023-01-22T03:53:24.859Z,9.745583
2023-01-22T03:54:24.934Z,9.745353
2023-01-22T03:55:24.846Z,9.745178
2023-01-22T03:56:24.871Z,9.745323
2023-01-22T03:57:24.838Z,9.745353
2023-01-22T03:58:24.826Z,9.745558
2023-01-22T03:59:24.816Z,9.745268
2023-01-22T04:00:24.932Z,9.745355
2023-01-22T04:01:24.864Z,9.745692
2023-01-22T04:02:24.858Z,9.745886
2023-01-22T04:03:24.789Z,9.745786
2023-01-22T04:04:24.782Z,9.746269
2023-01-22T04:05:24.775Z,9.746020
2023-01-22T04:06:24.764Z,9.745888
2023-01-22T04:07:24.789Z,9.745605
2023-01-22T04:08:24.753Z,9.745644
2023-01-22T04:09:24.747Z,9.745578
2023-01-22T04:10:24.813Z,9.745565
2023-01-22T04:11:24.741Z,9.745576
2023-01-22T04:12:24.750Z,9.745742
2023-01-22T04:13:24.722Z,9.745381
2023-01-22T04:14:24.712Z,9.745578
2023-01-22T04:15:24.709Z,9.745665
2023-01-22T04:16:24.729Z,9.745625
2023-01-22T04:17:26.711Z,9.745719
2023-01-22T04:18:25.685Z,9.745608
2023-01-22T04:19:24.678Z,9.745863
2023-01-22T04:20:24.686Z,9.745972
2023-01-22T04:21:24.667Z,9.745841
2023-01-22T04:22:24.679Z,9.745839
2023-01-22T04:23:24.653Z,9.745525
2023-01-22T04:24:24.641Z,9.745503
2023-01-22T04:25:24.631Z,9.745684
2023-01-22T04:26:24.700Z,9.745645
2023-01-22T04:27:24.642Z,9.745633
2023-01-22T04:28:24.613Z,9.746029
2023-01-22T04:29:24.601Z,9.745740
2023-01-22T04:30:25.622Z,9.745727
2023-01-22T04:31:24.637Z,9.745826
2023-01-22T04:32:24.605Z,9.745724
2023-01-22T04:33:24.571Z,9.745585
2023-01-22T04:34:24.566Z,9.745554
2023-01-22T04:35:24.588Z,9.745688
2023-01-22T04:36:24.556Z,9.745819
2023-01-22T04:37:24.548Z,9.745705
2023-01-22T04:38:24.554Z,9.745689
2023-01-22T04:39:24.536Z,9.745812
2023-01-22T04:40:24.555Z,9.745800
2023-01-22T04:41:24.528Z,9.745698
2023-01-22T04:42:24.591Z,9.745734
2023-01-22T04:43:24.509Z,9.745631
2023-01-22T04:44:24.499Z,9.745792
2023-01-22T04:45:24.517Z,9.745992
2023-01-22T04:46:24.525Z,9.745839
2023-01-22T04:47:24.502Z,9.745684
2023-01-22T04:48:24.473Z,9.745784
2023-01-22T04:49:24.460Z,9.745787
2023-01-22T04:50:24.476Z,9.745651
2023-01-22T04:51:24.521Z,9.745463
2023-01-22T04:52:24.440Z,9.744802
2023-01-22T04:53:24.434Z,9.745283
2023-01-22T04:54:24.435Z,9.745576
2023-01-22T04:55:24.468Z,9.745534
2023-01-22T04:56:24.415Z,9.746100
2023-01-22T04:57:24.407Z,9.745653
2023-01-22T04:58:24.473Z,9.745513
2023-01-22T04:59:24.395Z,9.745535
2023-01-22T05:00:24.413Z,9.745621
2023-01-22T05:01:24.405Z,9.745557
2023-01-22T05:02:24.456Z,9.745474
2023-01-22T05:03:24.368Z,9.745706
2023-01-22T05:04:24.359Z,9.745714
2023-01-22T05:05:24.371Z,9.745662
2023-01-22T05:06:24.385Z,9.745761
2023-01-22T05:07:24.344Z,9.745729
2023-01-22T05:08:24.332Z,9.745576
2023-01-22T05:09:24.323Z,9.745357
2023-01-22T05:10:24.322Z,9.745082
2023-01-22T05:11:24.325Z,9.745319
2023-01-22T05:12:24.328Z,9.745851
2023-01-22T05:13:24.295Z,9.745604
2023-01-22T05:14:24.369Z,9.745423
2023-01-22T05:15:25.324Z,9.745238
2023-01-22T05:16:25.297Z,9.745482
2023-01-22T05:17:24.265Z,9.745475
2023-01-22T05:18:24.258Z,9.745506
2023-01-22T05:19:24.239Z,9.745716
2023-01-22T05:20:25.238Z,9.745740
2023-01-22T05:21:24.269Z,9.745849
2023-01-22T05:22:24.223Z,9.745811
2023-01-22T05:23:24.219Z,9.745770
2023-01-22T05:24:24.215Z,9.745502
2023-01-22T05:25:24.210Z,9.745404
2023-01-22T05:26:24.217Z,9.745600
2023-01-22T05:27:24.195Z,9.745565
2023-01-22T05:28:24.184Z,9.745573
2023-01-22T05:29:24.173Z,9.745682
2023-01-22T05:30:24.274Z,9.745613
2023-01-22T05:31:24.327Z,9.745615
2023-01-22T05:32:24.149Z,9.745708
2023-01-22T05:33:24.143Z,9.745971
2023-01-22T05:34:24.132Z,9.746291
2023-01-22T05:35:24.141Z,9.746324
2023-01-22T05:36:24.142Z,9.746526
2023-01-22T05:37:24.123Z,9.746218
2023-01-22T05:38:24.098Z,9.746218
2023-01-22T05:39:24.301Z,9.746218
2023-01-22T05:40:25.092Z,9.746218
2023-01-22T05:41:24.102Z,9.746218
2023-01-22T05:42:24.077Z,9.746218
2023-01-22T05:43:24.068Z,9.746218
2023-01-22T05:44:24.060Z,9.746218
2023-01-22T05:45:24.050Z,9.746408
2023-01-22T05:46:24.189Z,9.746090
2023-01-22T05:47:24.040Z,9.746299
2023-01-22T05:48:24.025Z,9.746150
2023-01-22T05:49:24.020Z,9.745845
2023-01-22T05:50:24.008Z,9.745840
2023-01-22T05:51:24.062Z,9.745624
2023-01-22T05:52:23.997Z,9.745314
2023-01-22T05:53:23.991Z,9.745472
2023-01-22T05:54:23.980Z,9.745542
2023-01-22T05:55:23.974Z,9.745093
2023-01-22T05:56:23.992Z,9.745049
2023-01-22T05:57:23.961Z,9.745104
2023-01-22T05:58:23.953Z,9.745249
2023-01-22T05:59:23.949Z,9.745490
2023-01-22T06:00:23.935Z,9.745349
2023-01-22T06:01:23.953Z,9.745424
2023-01-22T06:02:24.071Z,9.744636
2023-01-22T06:03:23.943Z,9.744916
2023-01-22T06:04:23.911Z,9.745097
2023-01-22T06:05:23.966Z,9.744711
2023-01-22T06:06:23.916Z,9.745210
2023-01-22T06:07:23.885Z,9.745668
2023-01-22T06:08:23.883Z,9.745525
2023-01-22T06:09:23.884Z,9.745742
2023-01-22T06:10:23.866Z,9.745460
2023-01-22T06:11:23.883Z,9.745218
2023-01-22T06:12:23.854Z,9.745488
2023-01-22T06:13:23.840Z,9.745566
2023-01-22T06:14:23.848Z,9.745708
2023-01-22T06:15:23.825Z,9.746288
2023-01-22T06:16:23.848Z,9.745707
2023-01-22T06:17:23.815Z,9.745831
2023-01-22T06:18:23.879Z,9.745771
2023-01-22T06:19:23.803Z,9.745771
2023-01-22T06:20:23.792Z,9.745771
2023-01-22T06:21:23.806Z,9.745771
2023-01-22T06:22:23.783Z,9.745771
2023-01-22T06:23:23.768Z,9.745771
2023-01-22T06:24:23.765Z,9.745771
2023-01-22T06:25:23.757Z,9.745771
2023-01-22T06:26:23.773Z,9.745771
2023-01-22T06:27:23.744Z,9.745771
2023-01-22T06:28:23.735Z,9.745771
2023-01-22T06:29:23.723Z,9.745771
2023-01-22T06:30:23.720Z,9.745771
2023-01-22T06:31:23.800Z,9.744339
2023-01-22T06:32:23.707Z,9.744828
2023-01-22T06:33:23.698Z,9.745149
2023-01-22T06:34:23.761Z,9.744934
2023-01-22T06:35:23.685Z,9.744371
2023-01-22T06:36:23.699Z,9.744383
2023-01-22T06:37:23.687Z,9.744383
2023-01-22T06:38:23.657Z,9.744383
2023-01-22T06:39:23.651Z,9.744383
2023-01-22T06:40:23.639Z,9.744383
2023-01-22T06:41:23.658Z,9.744383
2023-01-22T06:42:23.630Z,9.744383
2023-01-22T06:43:23.620Z,9.744383
2023-01-22T06:44:23.621Z,9.744383
2023-01-22T06:45:23.613Z,9.744383
2023-01-22T06:46:23.652Z,9.744383
2023-01-22T06:47:23.594Z,9.744383
2023-01-22T06:48:23.597Z,9.744383
2023-01-22T06:49:23.701Z,9.744383
2023-01-22T06:50:23.648Z,9.744383
2023-01-22T06:51:23.627Z,9.744383
2023-01-22T06:52:23.576Z,9.744383
2023-01-22T06:53:23.540Z,9.744383
2023-01-22T06:54:24.553Z,9.744383
2023-01-22T06:55:23.540Z,9.744383
2023-01-22T06:56:23.555Z,9.744383
2023-01-22T06:57:23.521Z,9.744383
2023-01-22T06:58:23.517Z,9.744383
2023-01-22T06:59:23.509Z,9.744383
2023-01-22T07:00:23.500Z,9.744383
2023-01-22T07:01:23.529Z,9.744383
2023-01-22T07:02:23.484Z,9.744383
2023-01-22T07:03:23.519Z,9.744383
2023-01-22T07:04:23.473Z,9.744383
2023-01-22T07:05:23.463Z,9.744383
2023-01-22T07:06:23.569Z,9.744383
2023-01-22T07:07:23.447Z,9.744383
2023-01-22T07:08:23.441Z,9.744383
2023-01-22T07:09:23.435Z,9.744383
2023-01-22T07:10:23.424Z,9.745444
2023-01-22T07:11:23.424Z,9.746002
2023-01-22T07:12:23.441Z,9.745721
2023-01-22T07:13:23.403Z,9.745717
2023-01-22T07:14:36.107Z,9.746099
2023-01-22T07:15:25.380Z,9.745562
2023-01-22T07:16:23.393Z,9.745583
2023-01-22T07:17:23.398Z,9.745557
2023-01-22T07:18:23.368Z,9.745605
2023-01-22T07:19:23.363Z,9.745563
2023-01-22T07:20:23.350Z,9.745554
2023-01-22T07:21:23.350Z,9.745391
2023-01-22T07:22:23.433Z,9.745094
2023-01-22T07:23:23.330Z,9.745690
2023-01-22T07:24:23.326Z,9.745614
2023-01-22T07:25:23.317Z,9.745601
2023-01-22T07:26:23.318Z,9.745667
2023-01-22T07:27:23.330Z,9.745447
2023-01-22T07:28:23.298Z,9.745604
2023-01-22T07:29:23.283Z,9.745503
2023-01-22T07:30:23.344Z,9.745081
2023-01-22T07:31:23.328Z,9.745328
2023-01-22T07:32:23.293Z,9.745349
2023-01-22T07:33:23.270Z,9.745545
2023-01-22T07:34:23.256Z,9.745570
2023-01-22T07:35:23.240Z,9.745632
2023-01-22T07:36:23.243Z,9.745675
2023-01-22T07:37:23.258Z,9.745592
2023-01-22T07:38:23.298Z,9.745379
2023-01-22T07:39:23.214Z,9.745732
2023-01-22T07:40:23.213Z,9.745594
2023-01-22T07:41:26.016Z,9.745388
2023-01-22T07:42:24.216Z,9.745400
2023-01-22T07:43:23.187Z,9.745538
2023-01-22T07:44:23.185Z,9.745603
2023-01-22T07:45:23.176Z,9.745626
2023-01-22T07:46:23.188Z,9.745511
2023-01-22T07:47:23.180Z,9.745506
2023-01-22T07:48:23.151Z,9.745400
2023-01-22T07:49:23.143Z,9.745461
2023-01-22T07:50:23.132Z,9.745546
2023-01-22T07:51:23.149Z,9.745474
2023-01-22T07:52:23.146Z,9.745565
2023-01-22T07:53:23.115Z,9.745376
2023-01-22T07:54:23.203Z,9.745462
2023-01-22T07:55:23.114Z,9.745550
2023-01-22T07:56:23.099Z,9.745441
2023-01-22T07:57:23.113Z,9.745454
2023-01-22T07:58:23.081Z,9.745605
2023-01-22T07:59:23.077Z,9.745531
2023-01-22T08:00:23.071Z,9.745278
2023-01-22T08:01:23.060Z,9.745473
2023-01-22T08:02:23.114Z,9.745448
2023-01-22T08:03:23.044Z,9.745494
2023-01-22T08:04:23.045Z,9.745620
2023-01-22T08:05:23.029Z,9.746043
2023-01-22T08:06:23.020Z,9.745862
2023-01-22T08:07:23.040Z,9.745474
2023-01-22T08:08:23.007Z,9.745324
2023-01-22T08:09:23.000Z,9.745372
2023-01-22T08:10:23.064Z,9.745744
2023-01-22T08:11:22.990Z,9.746170
2023-01-22T08:12:23.002Z,9.745504
2023-01-22T08:13:22.982Z,9.745503
2023-01-22T08:14:22.961Z,9.745621
2023-01-22T08:15:22.957Z,9.745576
2023-01-22T08:16:22.954Z,9.745514
2023-01-22T08:17:22.966Z,9.745514
2023-01-22T08:18:23.138Z,9.745832
2023-01-22T08:19:23.922Z,9.745645
2023-01-22T08:20:23.922Z,9.745103
2023-01-22T08:21:22.912Z,9.744983
2023-01-22T08:22:22.929Z,9.745299
2023-01-22T08:23:22.899Z,9.745584
2023-01-22T08:24:22.888Z,9.745454
2023-01-22T08:25:22.878Z,9.745217
2023-01-22T08:26:22.955Z,9.745455
2023-01-22T08:27:22.889Z,9.745392
2023-01-22T08:28:22.851Z,9.745552
2023-01-22T08:29:22.846Z,9.745680
2023-01-22T08:30:22.851Z,9.745456
2023-01-22T08:31:28.342Z,9.745565
2023-01-22T08:32:24.948Z,9.745456
2023-01-22T08:33:22.814Z,9.745416
2023-01-22T08:34:22.815Z,9.745167
2023-01-22T08:35:24.469Z,9.745180
2023-01-22T08:36:22.790Z,9.745263
2023-01-22T08:37:22.809Z,9.745401
2023-01-22T08:38:22.781Z,9.745419
2023-01-22T08:39:22.772Z,9.745570
2023-01-22T08:40:22.768Z,9.745373
2023-01-22T08:41:22.764Z,9.745474
2023-01-22T08:42:22.874Z,9.745227
2023-01-22T08:43:22.743Z,9.745624
2023-01-22T08:44:22.722Z,9.745764
2023-01-22T08:45:23.727Z,9.745644
2023-01-22T08:46:22.717Z,9.745488
2023-01-22T08:47:22.733Z,9.745564
2023-01-22T08:48:22.699Z,9.745620
2023-01-22T08:49:22.694Z,9.745456
2023-01-22T08:50:22.686Z,9.745646
2023-01-22T08:51:22.779Z,9.745589
2023-01-22T08:52:22.695Z,9.745597
2023-01-22T08:53:23.663Z,9.745450
2023-01-22T08:54:22.654Z,9.745435
2023-01-22T08:55:22.641Z,9.745387
2023-01-22T08:56:22.636Z,9.745393
2023-01-22T08:57:22.662Z,9.745246
2023-01-22T08:58:28.485Z,9.745321
2023-01-22T08:59:23.678Z,9.745459
2023-01-22T09:00:23.613Z,9.745495
2023-01-22T09:01:22.638Z,9.745438
2023-01-22T09:02:22.642Z,9.745662
2023-01-22T09:03:22.584Z,9.745572
2023-01-22T09:04:22.575Z,9.745326
2023-01-22T09:05:22.565Z,9.745514
2023-01-22T09:06:22.562Z,9.745353
2023-01-22T09:07:22.577Z,9.745496
2023-01-22T09:08:22.545Z,9.745603
2023-01-22T09:09:22.540Z,9.745393
2023-01-22T09:10:22.748Z,9.745216
2023-01-22T09:11:22.525Z,9.745743
2023-01-22T09:12:22.544Z,9.745432
2023-01-22T09:13:22.513Z,9.745263
2023-01-22T09:14:22.508Z,9.745322
2023-01-22T09:15:22.565Z,9.745257
2023-01-22T09:16:22.511Z,9.745328
2023-01-22T09:17:22.502Z,9.745305
2023-01-22T09:18:22.468Z,9.745226
2023-01-22T09:19:22.466Z,9.745440
2023-01-22T09:20:22.522Z,9.745979
2023-01-22T09:21:22.464Z,9.745502
2023-01-22T09:22:22.469Z,9.745350
2023-01-22T09:23:22.467Z,9.744988
2023-01-22T09:24:22.426Z,9.745328
2023-01-22T09:25:22.435Z,9.745130
2023-01-22T09:26:22.418Z,9.745016
2023-01-22T09:27:22.441Z,9.745017
2023-01-22T09:28:22.414Z,9.745185
2023-01-22T09:29:22.396Z,9.745354
2023-01-22T09:30:22.453Z,9.745032
2023-01-22T09:31:22.502Z,9.745245
2023-01-22T09:32:22.393Z,9.745378
2023-01-22T09:33:22.365Z,9.745082
2023-01-22T09:34:22.352Z,9.745102
2023-01-22T09:35:22.345Z,9.745242
2023-01-22T09:36:22.337Z,9.745218
2023-01-22T09:37:22.359Z,9.745605
2023-01-22T09:38:22.319Z,9.745285
2023-01-22T09:39:22.318Z,9.745395
2023-01-22T09:40:22.320Z,9.745311
2023-01-22T09:41:22.301Z,9.745461
2023-01-22T09:42:22.317Z,9.745068
2023-01-22T09:43:22.288Z,9.744898
2023-01-22T09:44:22.277Z,9.745275
2023-01-22T09:45:22.271Z,9.745255
2023-01-22T09:46:22.318Z,9.745315
2023-01-22T09:47:22.360Z,9.745122
2023-01-22T09:48:22.250Z,9.745288
2023-01-22T09:49:22.261Z,9.745320
2023-01-22T09:50:22.273Z,9.745255
2023-01-22T09:51:22.310Z,9.745097
2023-01-22T09:52:22.240Z,9.745133
2023-01-22T09:53:22.207Z,9.745244
2023-01-22T09:54:22.231Z,9.745722
2023-01-22T09:55:22.192Z,9.745595
2023-01-22T09:56:22.194Z,9.745248
2023-01-22T09:57:31.231Z,9.745469
2023-01-22T09:58:24.176Z,9.745469
2023-01-22T09:59:22.166Z,9.745469
2023-01-22T10:00:22.209Z,9.745469
2023-01-22T10:01:22.168Z,9.744007
2023-01-22T10:02:22.182Z,9.744946
2023-01-22T10:03:22.929Z,9.744492
2023-01-22T10:04:23.133Z,9.744117
2023-01-22T10:05:22.111Z,9.744674
2023-01-22T10:06:23.110Z,9.744906
2023-01-22T10:07:22.105Z,9.744897
2023-01-22T10:08:22.128Z,9.744897
2023-01-22T10:09:22.091Z,9.744897
2023-01-22T10:10:22.161Z,9.744897
2023-01-22T10:11:22.078Z,9.744897
2023-01-22T10:12:22.059Z,9.744897
2023-01-22T10:13:22.094Z,9.744897
2023-01-22T10:14:22.054Z,9.744897
2023-01-22T10:15:22.042Z,9.744897
2023-01-22T10:16:22.061Z,9.744897
2023-01-22T10:17:22.030Z,9.744897
2023-01-22T10:18:22.043Z,9.744897
2023-01-22T10:19:22.139Z,9.744897
2023-01-22T10:20:22.009Z,9.744897
2023-01-22T10:21:21.998Z,9.744897
2023-01-22T10:22:21.989Z,9.744897
2023-01-22T10:23:22.006Z,9.744897
2023-01-22T10:24:21.975Z,9.744897
2023-01-22T10:25:21.969Z,9.745726
2023-01-22T10:26:21.979Z,9.745716
2023-01-22T10:27:21.970Z,9.745567
2023-01-22T10:28:21.969Z,9.745316
2023-01-22T10:29:21.976Z,9.745428
2023-01-22T10:30:22.123Z,9.745708
2023-01-22T10:31:23.868Z,9.745822
2023-01-22T10:32:21.951Z,9.745805
2023-01-22T10:33:21.936Z,9.745746
2023-01-22T10:34:21.896Z,9.745772
2023-01-22T10:35:21.967Z,9.745896
2023-01-22T10:36:21.882Z,9.745681
2023-01-22T10:37:21.885Z,9.745646
2023-01-22T10:38:21.905Z,9.745682
2023-01-22T10:39:21.881Z,9.745843
2023-01-22T10:40:21.857Z,9.745670
2023-01-22T10:41:21.844Z,9.745671
2023-01-22T10:42:21.835Z,9.745672
2023-01-22T10:43:21.855Z,9.745566
2023-01-22T10:44:21.850Z,9.745545
2023-01-22T10:45:21.820Z,9.745229
2023-01-22T10:46:21.887Z,9.745062
2023-01-22T10:47:21.806Z,9.745261
2023-01-22T10:48:21.826Z,9.745486
2023-01-22T10:49:21.787Z,9.745562
2023-01-22T10:50:22.210Z,9.745476
2023-01-22T10:51:21.885Z,9.745445
2023-01-22T10:52:21.767Z,9.745472
2023-01-22T10:53:21.789Z,9.745580
2023-01-22T10:54:21.755Z,9.745649
2023-01-22T10:55:21.743Z,9.745501
2023-01-22T10:56:21.736Z,9.745587
2023-01-22T10:57:21.729Z,9.745502
2023-01-22T10:58:21.741Z,9.745255
2023-01-22T10:59:21.705Z,9.745230
2023-01-22T11:00:22.013Z,9.745282
2023-01-22T11:01:21.706Z,9.745301
2023-01-22T11:02:21.722Z,9.745582
2023-01-22T11:03:21.703Z,9.745638
2023-01-22T11:04:21.678Z,9.745526
2023-01-22T11:05:21.666Z,9.745584
2023-01-22T11:06:21.658Z,9.745434
2023-01-22T11:07:21.725Z,9.745275
2023-01-22T11:08:21.669Z,9.745428
2023-01-22T11:09:21.640Z,9.745525
2023-01-22T11:10:22.082Z,9.745618
2023-01-22T11:11:21.627Z,9.745573
2023-01-22T11:12:21.613Z,9.745458
2023-01-22T11:13:21.638Z,9.745517
2023-01-22T11:14:21.609Z,9.745506
2023-01-22T11:15:21.597Z,9.745375
2023-01-22T11:16:21.589Z,9.745420
2023-01-22T11:17:21.579Z,9.745484
2023-01-22T11:18:21.570Z,9.745396
2023-01-22T11:19:32.647Z,9.745604
2023-01-22T11:20:23.646Z,9.745551
2023-01-22T11:21:21.557Z,9.745548
2023-01-22T11:22:21.542Z,9.745500
2023-01-22T11:23:21.611Z,9.745565
2023-01-22T11:24:21.552Z,9.745454
2023-01-22T11:25:21.527Z,9.745542
2023-01-22T11:26:21.514Z,9.745483
2023-01-22T11:27:21.506Z,9.745588
2023-01-22T11:28:21.504Z,9.745592
2023-01-22T11:29:21.516Z,9.745608
2023-01-22T11:30:21.634Z,9.745456
2023-01-22T11:31:21.597Z,9.745456
2023-01-22T11:32:21.473Z,9.745467
2023-01-22T11:33:21.461Z,9.745519
2023-01-22T11:34:21.483Z,9.745640
2023-01-22T11:35:21.449Z,9.745474
2023-01-22T11:36:21.439Z,9.745538
2023-01-22T11:37:21.439Z,9.745476
2023-01-22T11:38:21.429Z,9.745525
2023-01-22T11:39:22.512Z,9.745625
2023-01-22T11:40:22.583Z,9.745421
2023-01-22T11:41:21.408Z,9.745737
2023-01-22T11:42:21.395Z,9.745776
2023-01-22T11:43:21.385Z,9.745645
2023-01-22T11:44:21.419Z,9.745642